createdAt,value
2023-05-07T00:02:02.473Z,100.00
2023-05-07T00:04:29.652Z,100.00
2023-05-07T00:06:56.972Z,100.00
2023-05-07T00:09:23.790Z,100.00
2023-05-07T00:11:50.643Z,100.00
2023-05-07T00:14:17.468Z,100.00
2023-05-07T00:16:44.390Z,100.00
2023-05-07T00:19:11.522Z,100.00
2023-05-07T00:21:38.596Z,100.00
2023-05-07T00:24:06.099Z,100.00
2023-05-07T00:26:33.176Z,100.00
2023-05-07T00:29:00.234Z,100.00
2023-05-07T00:31:27.083Z,100.00
2023-05-07T00:33:54.047Z,100.00
2023-05-07T00:36:21.219Z,100.00
2023-05-07T00:38:48.126Z,100.00
2023-05-07T00:41:15.085Z,100.00
2023-05-07T00:43:41.963Z,100.00
2023-05-07T00:46:08.948Z,100.00
2023-05-07T00:48:36.094Z,100.00
2023-05-07T00:51:03.017Z,100.00
2023-05-07T00:53:30.069Z,100.00
2023-05-07T00:55:57.244Z,100.00
2023-05-07T00:58:24.984Z,100.00
2023-05-07T01:00:52.023Z,100.00
2023-05-07T01:03:18.976Z,100.00
2023-05-07T01:05:48.833Z,100.00
2023-05-07T01:08:17.575Z,100.00
2023-05-07T01:10:45.987Z,100.00
2023-05-07T01:13:14.161Z,100.00
2023-05-07T01:15:42.404Z,100.00
2023-05-07T01:18:09.507Z,100.00
2023-05-07T01:20:36.822Z,100.00
2023-05-07T01:23:04.859Z,100.00
2023-05-07T01:25:32.254Z,100.00
2023-05-07T01:28:02.504Z,100.00
2023-05-07T01:30:36.018Z,100.00
2023-05-07T01:33:12.501Z,100.00
2023-05-07T01:35:42.714Z,100.00
2023-05-07T01:38:09.758Z,100.00
2023-05-07T01:40:36.937Z,100.00
2023-05-07T01:43:04.833Z,100.00
2023-05-07T01:45:35.190Z,100.00
2023-05-07T01:48:03.531Z,100.00
2023-05-07T01:50:32.781Z,100.00
2023-05-07T01:52:59.825Z,100.00
2023-05-07T01:55:26.667Z,100.00
2023-05-07T01:57:53.505Z,100.00
2023-05-07T02:00:20.866Z,100.00
2023-05-07T02:02:47.855Z,100.00
2023-05-07T02:05:27.010Z,100.00
2023-05-07T02:08:02.039Z,100.00
2023-05-07T02:10:30.495Z,100.00
2023-05-07T02:12:57.360Z,100.00
2023-05-07T02:15:24.652Z,100.00
2023-05-07T02:18:09.160Z,100.00
2023-05-07T02:20:36.578Z,100.00
2023-05-07T02:23:03.447Z,100.00
2023-05-07T02:25:31.423Z,100.00
2023-05-07T02:27:59.158Z,100.00
2023-05-07T02:30:38.917Z,100.00
2023-05-07T02:33:06.575Z,100.00
2023-05-07T02:35:33.628Z,100.00
2023-05-07T02:38:00.723Z,100.00
2023-05-07T02:40:27.768Z,100.00
2023-05-07T02:42:54.650Z,100.00
2023-05-07T02:45:21.755Z,100.00
2023-05-07T02:47:52.440Z,100.00
2023-05-07T02:50:19.336Z,100.00
2023-05-07T02:52:46.285Z,100.00
2023-05-07T02:55:13.206Z,100.00
2023-05-07T02:57:40.081Z,100.00
2023-05-07T03:00:12.908Z,100.00
2023-05-07T03:02:42.969Z,100.00
2023-05-07T03:05:09.875Z,100.00
2023-05-07T03:07:37.273Z,100.00
2023-05-07T03:10:05.397Z,100.00
2023-05-07T03:12:32.692Z,100.00
2023-05-07T03:14:59.803Z,100.00
2023-05-07T03:17:26.745Z,100.00
2023-05-07T03:19:53.743Z,100.00
2023-05-07T03:22:20.675Z,100.00
2023-05-07T03:24:47.528Z,100.00
2023-05-07T03:27:14.352Z,100.00
2023-05-07T03:29:41.629Z,100.00
2023-05-07T03:32:08.521Z,100.00
2023-05-07T03:34:35.908Z,100.00
2023-05-07T03:37:02.892Z,100.00
2023-05-07T03:39:29.792Z,100.00
2023-05-07T03:41:57.003Z,100.00
2023-05-07T03:44:24.133Z,100.00
2023-05-07T03:46:51.946Z,100.00
2023-05-07T03:49:18.880Z,100.00
2023-05-07T03:51:45.932Z,100.00
2023-05-07T03:54:12.790Z,100.00
2023-05-07T03:56:43.941Z,100.00
2023-05-07T03:59:10.798Z,100.00
2023-05-07T04:01:37.741Z,100.00
2023-05-07T04:04:05.601Z,100.00
2023-05-07T04:06:33.793Z,100.00
2023-05-07T04:09:00.821Z,100.00
2023-05-07T04:11:29.067Z,100.00
2023-05-07T04:13:56.245Z,100.00
2023-05-07T04:16:24.403Z,100.00
2023-05-07T04:18:51.528Z,100.00
2023-05-07T04:21:21.009Z,100.00
2023-05-07T04:23:50.007Z,100.00
2023-05-07T04:26:17.241Z,100.00
2023-05-07T04:28:45.059Z,100.00
2023-05-07T04:31:12.466Z,100.00
2023-05-07T04:33:40.892Z,100.00
2023-05-07T04:36:10.882Z,100.00
2023-05-07T04:38:44.571Z,100.00
2023-05-07T04:41:14.492Z,100.00
2023-05-07T04:43:42.945Z,100.00
2023-05-07T04:46:11.804Z,100.00
2023-05-07T04:48:38.810Z,100.00
2023-05-07T04:51:07.637Z,100.00
2023-05-07T04:53:34.674Z,100.00
2023-05-07T04:56:01.665Z,100.00
2023-05-07T04:58:35.162Z,100.00
2023-05-07T05:01:02.764Z,100.00
2023-05-07T05:03:31.342Z,100.00
2023-05-07T05:06:00.676Z,100.00
2023-05-07T05:08:32.128Z,100.00
2023-05-07T05:10:59.865Z,100.00
2023-05-07T05:13:26.774Z,100.00
2023-05-07T05:15:53.725Z,100.00
2023-05-07T05:18:21.647Z,100.00
2023-05-07T05:20:48.756Z,100.00
2023-05-07T05:23:16.193Z,100.00
2023-05-07T05:25:43.224Z,100.00
2023-05-07T05:28:12.744Z,100.00
2023-05-07T05:30:40.548Z,100.00
2023-05-07T05:33:08.855Z,100.00
2023-05-07T05:35:36.638Z,100.00
2023-05-07T05:38:05.988Z,100.00
2023-05-07T05:40:34.653Z,100.00
2023-05-07T05:43:01.844Z,100.00
2023-05-07T05:45:29.047Z,100.00
2023-05-07T05:47:58.009Z,100.00
2023-05-07T05:50:25.050Z,100.00
2023-05-07T05:52:53.046Z,100.00
2023-05-07T05:55:21.467Z,100.00
2023-05-07T05:57:48.885Z,100.00
2023-05-07T06:00:17.279Z,100.00
2023-05-07T06:02:47.102Z,100.00
2023-05-07T06:05:20.451Z,100.00
2023-05-07T06:07:50.235Z,100.00
2023-05-07T06:10:17.468Z,100.00
2023-05-07T06:12:44.714Z,100.00
2023-05-07T06:15:12.058Z,100.00
2023-05-07T06:17:39.761Z,100.00
2023-05-07T06:20:08.345Z,100.00
2023-05-07T06:22:35.486Z,100.00
2023-05-07T06:25:03.806Z,100.00
2023-05-07T06:27:30.747Z,100.00
2023-05-07T06:29:58.418Z,100.00
2023-05-07T06:32:25.468Z,100.00
2023-05-07T06:34:52.900Z,100.00
2023-05-07T06:37:19.880Z,100.00
2023-05-07T06:39:54.366Z,100.00
2023-05-07T06:42:21.216Z,100.00
2023-05-07T06:44:49.404Z,100.00
2023-05-07T06:47:18.190Z,100.00
2023-05-07T06:49:49.268Z,100.00
2023-05-07T06:52:18.251Z,100.00
2023-05-07T06:54:46.738Z,100.00
2023-05-07T06:57:16.268Z,100.00
2023-05-07T06:59:43.134Z,100.00
2023-05-07T07:02:10.853Z,100.00
2023-05-07T07:04:39.711Z,100.00
2023-05-07T07:07:09.688Z,100.00
2023-05-07T07:09:36.972Z,100.00
2023-05-07T07:12:06.114Z,100.00
2023-05-07T07:14:34.413Z,100.00
2023-05-07T07:17:01.439Z,100.00
2023-05-07T07:19:28.654Z,100.00
2023-05-07T07:21:56.542Z,100.00
2023-05-07T07:24:23.416Z,100.00
2023-05-07T07:26:56.588Z,100.00
2023-05-07T07:29:26.921Z,100.00
2023-05-07T07:31:54.393Z,100.00
2023-05-07T07:34:22.021Z,100.00
2023-05-07T07:36:49.944Z,100.00
2023-05-07T07:39:18.888Z,100.00
2023-05-07T07:41:47.812Z,100.00
2023-05-07T07:44:16.559Z,100.00
2023-05-07T07:46:47.358Z,100.00
2023-05-07T07:49:15.311Z,100.00
2023-05-07T07:51:42.991Z,100.00
2023-05-07T07:54:11.152Z,100.00
2023-05-07T07:56:38.447Z,100.00
2023-05-07T07:59:07.085Z,100.00
2023-05-07T08:01:35.977Z,100.00
2023-05-07T08:04:04.640Z,100.00
2023-05-07T08:06:34.515Z,100.00
2023-05-07T08:09:01.820Z,100.00
2023-05-07T08:11:29.814Z,100.00
2023-05-07T08:13:57.367Z,100.00
2023-05-07T08:16:25.332Z,100.00
2023-05-07T08:18:53.425Z,100.00
2023-05-07T08:21:21.389Z,100.00
2023-05-07T08:23:48.440Z,100.00
2023-05-07T08:26:15.564Z,100.00
2023-05-07T08:28:43.453Z,100.00
2023-05-07T08:31:10.635Z,100.00
2023-05-07T08:33:40.152Z,100.00
2023-05-07T08:36:07.558Z,100.00
2023-05-07T08:38:34.896Z,100.00
2023-05-07T08:41:02.564Z,100.00
2023-05-07T08:43:34.709Z,100.00
2023-05-07T08:46:03.588Z,100.00
2023-05-07T08:48:34.825Z,100.00
2023-05-07T08:51:07.767Z,100.00
2023-05-07T08:53:36.641Z,100.00
2023-05-07T08:56:04.066Z,100.00
2023-05-07T08:58:31.347Z,100.00
2023-05-07T09:00:58.661Z,100.00
2023-05-07T09:03:25.555Z,100.00
2023-05-07T09:05:55.228Z,100.00
2023-05-07T09:08:28.447Z,100.00
2023-05-07T09:10:58.402Z,100.00
2023-05-07T09:13:25.418Z,100.00
2023-05-07T09:15:52.352Z,100.00
2023-05-07T09:18:20.490Z,100.00
2023-05-07T09:20:49.254Z,100.00
2023-05-07T09:23:19.225Z,100.00
2023-05-07T09:25:46.500Z,100.00
2023-05-07T09:28:22.805Z,100.00
2023-05-07T09:30:49.702Z,100.00
2023-05-07T09:33:16.666Z,100.00
2023-05-07T09:35:52.267Z,100.00
2023-05-07T09:38:22.491Z,100.00
2023-05-07T09:41:13.779Z,100.00
2023-05-07T09:44:08.228Z,100.00
2023-05-07T09:46:43.856Z,100.00
2023-05-07T09:49:23.827Z,100.00
2023-05-07T09:51:55.460Z,100.00
2023-05-07T09:54:25.960Z,100.00
2023-05-07T09:56:56.772Z,100.00
2023-05-07T09:59:30.243Z,100.00
2023-05-07T10:02:00.271Z,100.00
2023-05-07T10:04:28.565Z,100.00
2023-05-07T10:06:56.849Z,100.00
2023-05-07T10:09:27.167Z,100.00
2023-05-07T10:11:55.605Z,100.00
2023-05-07T10:14:23.314Z,100.00
2023-05-07T10:16:54.848Z,100.00
2023-05-07T10:19:23.977Z,100.00
2023-05-07T10:22:00.959Z,100.00
2023-05-07T10:24:36.652Z,100.00
2023-05-07T10:27:13.310Z,100.00
2023-05-07T10:30:00.222Z,100.00
2023-05-07T10:32:46.049Z,100.00
2023-05-07T10:35:25.822Z,100.00
2023-05-07T10:37:53.552Z,100.00
2023-05-07T10:40:22.693Z,100.00
2023-05-07T10:43:02.963Z,100.00
2023-05-07T10:45:35.722Z,100.00
2023-05-07T10:48:20.946Z,100.00
2023-05-07T10:51:20.150Z,100.00
2023-05-07T10:53:47.640Z,100.00
2023-05-07T10:56:20.254Z,100.00
2023-05-07T10:58:53.391Z,100.00
2023-05-07T11:01:55.678Z,100.00
2023-05-07T11:04:36.266Z,100.00
2023-05-07T11:07:32.484Z,100.00
2023-05-07T11:10:06.002Z,100.00
2023-05-07T11:12:59.152Z,100.00
2023-05-07T11:15:36.812Z,100.00
2023-05-07T11:18:07.179Z,100.00
2023-05-07T11:20:51.722Z,100.00
2023-05-07T11:23:38.574Z,100.00
2023-05-07T11:26:22.582Z,100.00
2023-05-07T11:28:50.312Z,100.00
2023-05-07T11:31:22.756Z,100.00
2023-05-07T11:33:50.189Z,100.00
2023-05-07T11:36:22.071Z,100.00
2023-05-07T11:38:51.292Z,100.00
2023-05-07T11:41:18.814Z,98.58
2023-05-07T11:43:57.446Z,97.71
2023-05-07T11:46:24.668Z,95.64
2023-05-07T11:48:51.895Z,94.64
2023-05-07T11:51:24.957Z,92.84
2023-05-07T11:53:51.879Z,94.22
2023-05-07T11:56:19.728Z,96.18
2023-05-07T11:58:47.859Z,92.61
2023-05-07T12:01:16.323Z,92.94
2023-05-07T12:03:47.071Z,94.11
2023-05-07T12:06:16.594Z,89.87
2023-05-07T12:08:47.023Z,93.86
2023-05-07T12:11:19.737Z,93.78
2023-05-07T12:13:46.959Z,92.13
2023-05-07T12:16:14.103Z,91.62
2023-05-07T12:18:41.376Z,90.52
2023-05-07T12:21:09.047Z,91.65
2023-05-07T12:23:38.436Z,93.43
2023-05-07T12:26:07.387Z,93.98
2023-05-07T12:28:40.177Z,92.87
2023-05-07T12:31:07.942Z,92.69
2023-05-07T12:33:36.513Z,91.49
2023-05-07T12:36:09.945Z,89.65
2023-05-07T12:38:42.100Z,89.57
2023-05-07T12:41:11.286Z,88.39
2023-05-07T12:43:38.213Z,85.95
2023-05-07T12:46:07.433Z,86.15
2023-05-07T12:48:34.757Z,87.31
2023-05-07T12:51:02.940Z,86.89
2023-05-07T12:53:31.023Z,86.42
2023-05-07T12:56:00.892Z,86.70
2023-05-07T12:58:30.371Z,87.07
2023-05-07T13:01:01.741Z,87.53
2023-05-07T13:03:31.596Z,88.71
2023-05-07T13:06:08.523Z,86.83
2023-05-07T13:11:05.799Z,86.09
2023-05-07T13:13:34.348Z,88.55
2023-05-07T13:16:05.373Z,87.09
2023-05-07T13:18:34.192Z,84.48
2023-05-07T13:21:02.442Z,83.56
2023-05-07T13:23:29.863Z,82.92
2023-05-07T13:25:57.411Z,81.37
2023-05-07T13:28:25.258Z,79.82
2023-05-07T13:30:53.124Z,78.40
2023-05-07T13:33:20.012Z,79.93
2023-05-07T13:35:47.096Z,77.99
2023-05-07T13:38:14.145Z,77.61
2023-05-07T13:40:41.117Z,78.51
2023-05-07T13:43:08.052Z,80.26
2023-05-07T13:45:34.928Z,79.27
2023-05-07T13:48:01.996Z,79.47
2023-05-07T13:50:31.110Z,79.05
2023-05-07T13:52:58.090Z,79.51
2023-05-07T13:55:26.012Z,78.74
2023-05-07T13:58:00.775Z,79.13
2023-05-07T14:00:29.205Z,80.78
2023-05-07T14:02:57.740Z,80.01
2023-05-07T14:05:25.792Z,81.11
2023-05-07T14:07:53.566Z,79.88
2023-05-07T14:10:20.802Z,80.22
2023-05-07T14:12:48.339Z,80.24
2023-05-07T14:15:17.206Z,79.45
2023-05-07T14:17:44.782Z,78.71
2023-05-07T14:20:14.340Z,78.02
2023-05-07T14:22:41.564Z,77.85
2023-05-07T14:25:11.025Z,79.20
2023-05-07T14:27:38.368Z,78.02
2023-05-07T14:30:05.876Z,76.90
2023-05-07T14:32:34.086Z,75.52
2023-05-07T14:35:01.087Z,75.30
2023-05-07T14:37:28.251Z,76.59
2023-05-07T14:39:55.309Z,75.01
2023-05-07T14:42:22.199Z,75.03
2023-05-07T14:44:49.696Z,73.83
2023-05-07T14:47:18.292Z,73.50
2023-05-07T14:49:46.774Z,74.60
2023-05-07T14:52:13.855Z,75.60
2023-05-07T14:54:40.931Z,73.47
2023-05-07T14:57:10.778Z,72.73
2023-05-07T14:59:39.050Z,72.62
2023-05-07T15:02:09.252Z,71.36
2023-05-07T15:04:37.496Z,70.87
2023-05-07T15:07:04.419Z,71.07
2023-05-07T15:09:31.402Z,70.53
2023-05-07T15:11:58.269Z,68.06
2023-05-07T15:14:25.128Z,68.93
2023-05-07T15:16:51.983Z,72.00
2023-05-07T15:19:18.864Z,74.79
2023-05-07T15:21:45.835Z,74.75
2023-05-07T15:24:12.712Z,75.22
2023-05-07T15:26:41.020Z,75.13
2023-05-07T15:29:11.427Z,74.49
2023-05-07T15:31:40.084Z,75.89
2023-05-07T15:34:07.593Z,77.75
2023-05-07T15:36:34.583Z,76.91
2023-05-07T15:39:03.776Z,76.95
2023-05-07T15:41:31.393Z,76.71
2023-05-07T15:43:58.904Z,76.94
2023-05-07T15:46:26.878Z,76.85
2023-05-07T15:48:54.565Z,76.99
2023-05-07T15:51:22.393Z,76.87
2023-05-07T15:53:50.383Z,77.06
2023-05-07T15:56:17.269Z,77.28
2023-05-07T15:58:44.149Z,76.99
2023-05-07T16:01:11.718Z,76.75
2023-05-07T16:03:40.532Z,76.39
2023-05-07T16:06:07.820Z,77.00
2023-05-07T16:08:34.737Z,78.49
2023-05-07T16:11:01.595Z,79.15
2023-05-07T16:13:28.502Z,78.91
2023-05-07T16:15:59.627Z,79.98
2023-05-07T16:18:26.648Z,81.27
2023-05-07T16:20:54.702Z,81.85
2023-05-07T16:23:21.806Z,83.02
2023-05-07T16:25:50.041Z,82.95
2023-05-07T16:28:17.096Z,83.13
2023-05-07T16:30:44.226Z,83.66
2023-05-07T16:33:11.263Z,83.21
2023-05-07T16:35:38.227Z,84.23
2023-05-07T16:38:10.528Z,84.09
2023-05-07T16:40:40.854Z,84.37
2023-05-07T16:43:08.266Z,84.80
2023-05-07T16:45:35.201Z,85.10
2023-05-07T16:48:03.476Z,86.04
2023-05-07T16:50:31.096Z,86.74
2023-05-07T16:53:01.000Z,86.65
2023-05-07T16:55:28.495Z,87.28
2023-05-07T16:57:55.497Z,88.46
2023-05-07T17:00:22.468Z,88.99
2023-05-07T17:02:49.554Z,88.82
2023-05-07T17:05:16.571Z,89.66
2023-05-07T17:07:43.437Z,90.22
2023-05-07T17:10:10.708Z,89.98
2023-05-07T17:12:38.047Z,91.90
2023-05-07T17:15:06.165Z,91.59
2023-05-07T17:17:33.444Z,90.73
2023-05-07T17:20:00.446Z,91.46
2023-05-07T17:22:27.592Z,91.98
2023-05-07T17:24:54.610Z,92.26
2023-05-07T17:27:21.516Z,93.57
2023-05-07T17:29:48.481Z,94.58
2023-05-07T17:32:15.447Z,94.79
2023-05-07T17:34:42.568Z,95.03
2023-05-07T17:37:09.568Z,95.88
2023-05-07T17:39:36.439Z,96.35
2023-05-07T17:42:03.391Z,96.42
2023-05-07T17:44:30.313Z,98.54
2023-05-07T17:46:57.121Z,100.00
2023-05-07T17:49:24.020Z,100.00
2023-05-07T17:51:54.512Z,100.00
2023-05-07T17:54:24.459Z,100.00
2023-05-07T17:56:51.580Z,100.00
2023-05-07T17:59:18.572Z,100.00
2023-05-07T18:01:45.651Z,100.00
2023-05-07T18:04:12.645Z,100.00
2023-05-07T18:06:39.994Z,100.00
2023-05-07T18:09:07.326Z,100.00
2023-05-07T18:11:34.344Z,100.00
2023-05-07T18:14:01.365Z,100.00
2023-05-07T18:16:28.427Z,100.00
2023-05-07T18:18:55.965Z,100.00
2023-05-07T18:21:22.898Z,100.00
2023-05-07T18:23:49.782Z,100.00
2023-05-07T18:26:16.969Z,100.00
2023-05-07T18:28:43.973Z,100.00
2023-05-07T18:31:11.050Z,100.00
2023-05-07T18:33:38.040Z,100.00
2023-05-07T18:36:05.538Z,100.00
2023-05-07T18:38:32.769Z,100.00
2023-05-07T18:41:06.495Z,100.00
2023-05-07T18:43:34.263Z,100.00
2023-05-07T18:46:01.566Z,100.00
2023-05-07T18:48:28.597Z,100.00
2023-05-07T18:51:15.972Z,100.00
2023-05-07T18:53:42.869Z,100.00
2023-05-07T18:56:09.753Z,100.00
2023-05-07T18:58:36.850Z,100.00
2023-05-07T19:01:08.743Z,100.00
2023-05-07T19:03:36.088Z,100.00
2023-05-07T19:06:04.706Z,100.00
2023-05-07T19:08:32.160Z,100.00
2023-05-07T19:11:19.552Z,100.00
2023-05-07T19:13:46.555Z,100.00
2023-05-07T19:16:14.203Z,100.00
2023-05-07T19:18:41.955Z,100.00
2023-05-07T19:21:09.222Z,100.00
2023-05-07T19:23:42.028Z,100.00
2023-05-07T19:26:10.289Z,100.00
2023-05-07T19:28:45.353Z,100.00
2023-05-07T19:31:20.752Z,100.00
2023-05-07T19:33:48.167Z,100.00
2023-05-07T19:36:17.475Z,100.00
2023-05-07T19:38:46.071Z,100.00
2023-05-07T19:41:13.274Z,100.00
2023-05-07T19:43:40.409Z,100.00
2023-05-07T19:46:07.427Z,100.00
2023-05-07T19:48:34.380Z,100.00
2023-05-07T19:51:01.432Z,100.00
2023-05-07T19:53:30.406Z,100.00
2023-05-07T19:56:03.483Z,100.00
2023-05-07T19:58:30.795Z,100.00
2023-05-07T20:00:57.634Z,100.00
2023-05-07T20:03:24.659Z,100.00
2023-05-07T20:05:51.984Z,100.00
2023-05-07T20:08:19.198Z,100.00
2023-05-07T20:10:46.133Z,100.00
2023-05-07T20:13:13.181Z,100.00
2023-05-07T20:15:40.972Z,100.00
2023-05-07T20:18:08.387Z,100.00
2023-05-07T20:20:35.426Z,100.00
2023-05-07T20:23:02.541Z,100.00
2023-05-07T20:25:29.512Z,100.00
2023-05-07T20:27:56.941Z,100.00
2023-05-07T20:30:25.058Z,100.00
2023-05-07T20:32:52.078Z,100.00
2023-05-07T20:35:19.049Z,100.00
2023-05-07T20:37:46.049Z,100.00
2023-05-07T20:40:13.632Z,100.00
2023-05-07T20:42:40.862Z,100.00
2023-05-07T20:45:08.336Z,100.00
2023-05-07T20:47:35.565Z,100.00
2023-05-07T20:50:03.479Z,100.00
2023-05-07T20:52:30.441Z,100.00
2023-05-07T20:54:57.432Z,100.00
2023-05-07T20:57:24.323Z,100.00
2023-05-07T20:59:51.253Z,100.00
2023-05-07T21:02:18.264Z,100.00
2023-05-07T21:04:45.437Z,100.00
2023-05-07T21:07:12.790Z,100.00
2023-05-07T21:09:39.723Z,100.00
2023-05-07T21:12:06.881Z,100.00
2023-05-07T21:14:33.756Z,100.00
2023-05-07T21:17:00.852Z,100.00
2023-05-07T21:19:27.827Z,100.00
2023-05-07T21:21:57.923Z,100.00
2023-05-07T21:24:25.575Z,100.00
2023-05-07T21:26:56.374Z,100.00
2023-05-07T21:29:23.801Z,100.00
2023-05-07T21:31:50.704Z,100.00
2023-05-07T21:34:17.627Z,100.00
2023-05-07T21:36:44.643Z,100.00
2023-05-07T21:39:12.389Z,100.00
2023-05-07T21:41:39.342Z,100.00
2023-05-07T21:44:06.230Z,100.00
2023-05-07T21:46:33.591Z,100.00
2023-05-07T21:49:00.601Z,100.00
2023-05-07T21:51:27.932Z,100.00
2023-05-07T21:53:56.108Z,100.00
2023-05-07T21:56:23.159Z,100.00
2023-05-07T21:58:50.040Z,100.00
2023-05-07T22:01:16.987Z,100.00
2023-05-07T22:03:43.954Z,100.00
2023-05-07T22:06:11.052Z,100.00
2023-05-07T22:08:38.026Z,100.00
2023-05-07T22:11:04.952Z,100.00
2023-05-07T22:13:31.867Z,100.00
2023-05-07T22:15:58.907Z,100.00
2023-05-07T22:18:26.718Z,100.00
2023-05-07T22:20:53.721Z,100.00
2023-05-07T22:23:20.818Z,100.00
2023-05-07T22:25:47.743Z,100.00
2023-05-07T22:28:14.704Z,100.00
2023-05-07T22:30:41.604Z,100.00
2023-05-07T22:33:08.672Z,100.00
2023-05-07T22:35:35.685Z,100.00
2023-05-07T22:38:02.613Z,100.00
2023-05-07T22:40:29.469Z,100.00
2023-05-07T22:42:56.333Z,100.00
2023-05-07T22:45:26.218Z,100.00
2023-05-07T22:47:53.310Z,100.00
2023-05-07T22:50:20.342Z,100.00
2023-05-07T22:52:47.222Z,100.00
2023-05-07T22:55:14.227Z,100.00
2023-05-07T22:57:41.359Z,100.00
2023-05-07T23:00:09.978Z,100.00
2023-05-07T23:02:37.420Z,100.00
2023-05-07T23:05:04.813Z,100.00
2023-05-07T23:07:31.815Z,100.00
2023-05-07T23:09:58.802Z,100.00
2023-05-07T23:12:25.645Z,100.00
2023-05-07T23:14:52.562Z,100.00
2023-05-07T23:17:19.474Z,100.00
2023-05-07T23:19:46.533Z,100.00
2023-05-07T23:22:13.738Z,100.00
2023-05-07T23:24:40.744Z,100.00
2023-05-07T23:27:08.565Z,100.00
2023-05-07T23:29:35.522Z,100.00
2023-05-07T23:32:02.641Z,100.00
2023-05-07T23:34:29.593Z,100.00
2023-05-07T23:36:56.439Z,100.00
2023-05-07T23:39:23.328Z,100.00
2023-05-07T23:41:50.187Z,100.00
2023-05-07T23:44:17.080Z,100.00
2023-05-07T23:46:44.911Z,100.00
2023-05-07T23:49:12.029Z,100.00
2023-05-07T23:51:39.004Z,100.00
2023-05-07T23:54:06.840Z,100.00
2023-05-07T23:56:33.942Z,100.00
2023-05-07T23:59:01.167Z,100.00
